sensor_id;sensor_type;location;lat;lon;timestamp;pressure;altitude;pressure_sealevel;temperature;humidity
8653;BME280;4364;52.426;9.424;2023-03-14T00:00:16;98499.75;;;10.57;79.34
8653;BME280;4364;52.426;9.424;2023-03-14T00:02:43;98503.41;;;10.62;79.41
8653;BME280;4364;52.426;9.424;2023-03-14T00:05:10;98497.28;;;10.44;79.96
8653;BME280;4364;52.426;9.424;2023-03-14T00:07:38;98480.78;;;10.49;79.73
8653;BME280;4364;52.426;9.424;2023-03-14T00:10:07;98472.28;;;10.50;79.78
8653;BME280;4364;52.426;9.424;2023-03-14T00:12:35;98463.13;;;10.34;79.95
8653;BME280;4364;52.426;9.424;2023-03-14T00:15:02;98459.31;;;10.35;79.98
8653;BME280;4364;52.426;9.424;2023-03-14T00:17:30;98449.97;;;10.45;79.36
8653;BME280;4364;52.426;9.424;2023-03-14T00:19:57;98441.38;;;10.43;79.31
8653;BME280;4364;52.426;9.424;2023-03-14T00:22:31;98450.03;;;10.36;79.98
8653;BME280;4364;52.426;9.424;2023-03-14T00:24:58;98462.56;;;10.49;79.40
8653;BME280;4364;52.426;9.424;2023-03-14T00:27:24;98461.50;;;10.42;79.58
8653;BME280;4364;52.426;9.424;2023-03-14T00:29:51;98474.50;;;10.57;78.93
8653;BME280;4364;52.426;9.424;2023-03-14T00:32:17;98475.75;;;10.60;78.91
8653;BME280;4364;52.426;9.424;2023-03-14T00:34:43;98489.94;;;10.65;78.39
8653;BME280;4364;52.426;9.424;2023-03-14T00:37:12;98495.59;;;10.81;77.68
8653;BME280;4364;52.426;9.424;2023-03-14T00:39:38;98493.00;;;10.85;77.71
8653;BME280;4364;52.426;9.424;2023-03-14T00:42:04;98490.59;;;10.83;77.80
8653;BME280;4364;52.426;9.424;2023-03-14T00:44:31;98500.50;;;10.88;77.32
8653;BME280;4364;52.426;9.424;2023-03-14T00:46:58;98490.72;;;10.87;77.60
8653;BME280;4364;52.426;9.424;2023-03-14T00:49:25;98476.47;;;10.90;77.53
8653;BME280;4364;52.426;9.424;2023-03-14T00:51:51;98486.03;;;10.96;77.24
8653;BME280;4364;52.426;9.424;2023-03-14T00:54:19;98475.41;;;11.03;76.83
8653;BME280;4364;52.426;9.424;2023-03-14T00:56:46;98470.09;;;11.07;76.79
8653;BME280;4364;52.426;9.424;2023-03-14T00:59:12;98470.09;;;11.07;76.98
8653;BME280;4364;52.426;9.424;2023-03-14T01:01:39;98454.09;;;11.05;76.81
8653;BME280;4364;52.426;9.424;2023-03-14T01:04:06;98451.78;;;11.16;76.51
8653;BME280;4364;52.426;9.424;2023-03-14T01:06:33;98445.41;;;11.12;75.95
8653;BME280;4364;52.426;9.424;2023-03-14T01:09:00;98419.59;;;11.18;75.90
8653;BME280;4364;52.426;9.424;2023-03-14T01:11:29;98426.25;;;11.08;76.51
8653;BME280;4364;52.426;9.424;2023-03-14T01:13:57;98428.75;;;11.13;76.28
8653;BME280;4364;52.426;9.424;2023-03-14T01:16:29;98438.13;;;11.04;76.35
8653;BME280;4364;52.426;9.424;2023-03-14T01:18:59;98425.06;;;10.97;76.69
8653;BME280;4364;52.426;9.424;2023-03-14T01:21:28;98429.84;;;11.12;76.51
8653;BME280;4364;52.426;9.424;2023-03-14T01:23:57;98412.06;;;11.03;76.98
8653;BME280;4364;52.426;9.424;2023-03-14T01:26:26;98422.56;;;10.92;77.69
8653;BME280;4364;52.426;9.424;2023-03-14T01:28:55;98430.72;;;10.92;77.59
8653;BME280;4364;52.426;9.424;2023-03-14T01:31:22;98432.31;;;10.93;77.42
8653;BME280;4364;52.426;9.424;2023-03-14T01:33:49;98426.25;;;10.87;77.82
8653;BME280;4364;52.426;9.424;2023-03-14T01:36:16;98430.72;;;10.92;77.55
8653;BME280;4364;52.426;9.424;2023-03-14T01:38:43;98451.06;;;10.86;77.42
8653;BME280;4364;52.426;9.424;2023-03-14T01:41:19;98450.63;;;10.84;78.02
8653;BME280;4364;52.426;9.424;2023-03-14T01:43:47;98453.66;;;10.82;78.10
8653;BME280;4364;52.426;9.424;2023-03-14T01:46:34;98422.25;;;10.72;78.59
8653;BME280;4364;52.426;9.424;2023-03-14T01:49:04;98399.28;;;10.82;77.32
8653;BME280;4364;52.426;9.424;2023-03-14T01:51:59;98393.84;;;10.82;77.16
8653;BME280;4364;52.426;9.424;2023-03-14T01:54:32;98384.47;;;10.80;77.55
8653;BME280;4364;52.426;9.424;2023-03-14T01:57:17;98386.03;;;10.81;77.05
8653;BME280;4364;52.426;9.424;2023-03-14T01:59:51;98385.38;;;10.84;76.88
8653;BME280;4364;52.426;9.424;2023-03-14T02:02:19;98387.97;;;10.80;77.23
8653;BME280;4364;52.426;9.424;2023-03-14T02:04:45;98411.31;;;10.81;76.72
8653;BME280;4364;52.426;9.424;2023-03-14T02:10:15;98401.56;;;10.80;76.75
8653;BME280;4364;52.426;9.424;2023-03-14T02:12:42;98409.38;;;10.82;76.85
8653;BME280;4364;52.426;9.424;2023-03-14T02:15:32;98423.69;;;10.91;76.51
8653;BME280;4364;52.426;9.424;2023-03-14T02:18:10;98432.53;;;10.88;76.45
8653;BME280;4364;52.426;9.424;2023-03-14T02:21:09;98438.19;;;10.95;75.80
8653;BME280;4364;52.426;9.424;2023-03-14T02:23:56;98429.81;;;10.88;76.14
8653;BME280;4364;52.426;9.424;2023-03-14T02:26:38;98432.66;;;10.91;76.00
8653;BME280;4364;52.426;9.424;2023-03-14T02:29:06;98432.75;;;10.95;75.62
8653;BME280;4364;52.426;9.424;2023-03-14T02:31:34;98421.09;;;10.94;75.82
8653;BME280;4364;52.426;9.424;2023-03-14T02:34:01;98423.53;;;10.87;76.30
8653;BME280;4364;52.426;9.424;2023-03-14T02:36:29;98413.81;;;10.86;76.23
8653;BME280;4364;52.426;9.424;2023-03-14T02:39:16;98401.13;;;10.90;76.06
8653;BME280;4364;52.426;9.424;2023-03-14T02:41:46;98395.91;;;10.85;75.74
8653;BME280;4364;52.426;9.424;2023-03-14T02:44:15;98403.31;;;10.97;75.25
8653;BME280;4364;52.426;9.424;2023-03-14T02:46:42;98388.38;;;11.03;74.54
8653;BME280;4364;52.426;9.424;2023-03-14T02:49:12;98398.13;;;11.04;74.90
8653;BME280;4364;52.426;9.424;2023-03-14T02:51:41;98405.69;;;10.99;75.12
8653;BME280;4364;52.426;9.424;2023-03-14T02:54:09;98394.25;;;11.05;74.28
8653;BME280;4364;52.426;9.424;2023-03-14T02:56:36;98392.00;;;11.07;74.60
8653;BME280;4364;52.426;9.424;2023-03-14T02:59:04;98383.16;;;11.10;73.95
8653;BME280;4364;52.426;9.424;2023-03-14T03:01:51;98399.00;;;10.96;74.49
8653;BME280;4364;52.426;9.424;2023-03-14T03:04:18;98393.38;;;11.13;74.26
8653;BME280;4364;52.426;9.424;2023-03-14T03:06:45;98389.06;;;11.12;74.00
8653;BME280;4364;52.426;9.424;2023-03-14T03:09:12;98372.41;;;11.02;74.83
8653;BME280;4364;52.426;9.424;2023-03-14T03:11:39;98380.09;;;11.00;74.23
8653;BME280;4364;52.426;9.424;2023-03-14T03:14:06;98377.03;;;11.01;74.70
8653;BME280;4364;52.426;9.424;2023-03-14T03:16:33;98373.41;;;10.97;74.76
8653;BME280;4364;52.426;9.424;2023-03-14T03:18:59;98372.06;;;11.03;74.29
8653;BME280;4364;52.426;9.424;2023-03-14T03:21:26;98363.13;;;11.03;73.86
8653;BME280;4364;52.426;9.424;2023-03-14T03:23:52;98366.06;;;11.10;74.20
8653;BME280;4364;52.426;9.424;2023-03-14T03:26:19;98360.41;;;11.03;74.39
8653;BME280;4364;52.426;9.424;2023-03-14T03:28:45;98360.63;;;10.98;74.65
8653;BME280;4364;52.426;9.424;2023-03-14T03:31:13;98369.34;;;11.03;76.17
8653;BME280;4364;52.426;9.424;2023-03-14T03:33:40;98367.50;;;10.95;77.43
8653;BME280;4364;52.426;9.424;2023-03-14T03:36:08;98379.47;;;10.82;80.16
8653;BME280;4364;52.426;9.424;2023-03-14T03:38:37;98382.22;;;10.61;83.17
8653;BME280;4364;52.426;9.424;2023-03-14T03:41:06;98381.47;;;10.39;86.24
8653;BME280;4364;52.426;9.424;2023-03-14T03:43:34;98389.13;;;9.86;85.66
8653;BME280;4364;52.426;9.424;2023-03-14T03:46:04;98401.72;;;9.61;86.72
8653;BME280;4364;52.426;9.424;2023-03-14T03:48:31;98417.09;;;9.48;85.47
8653;BME280;4364;52.426;9.424;2023-03-14T03:51:01;98398.59;;;9.41;86.87
8653;BME280;4364;52.426;9.424;2023-03-14T03:53:28;98383.97;;;9.25;87.08
8653;BME280;4364;52.426;9.424;2023-03-14T03:56:03;98378.91;;;9.15;87.57
8653;BME280;4364;52.426;9.424;2023-03-14T03:58:30;98389.97;;;9.01;87.97
8653;BME280;4364;52.426;9.424;2023-03-14T04:00:56;98386.13;;;8.93;88.50
8653;BME280;4364;52.426;9.424;2023-03-14T04:03:23;98380.56;;;8.89;89.33
8653;BME280;4364;52.426;9.424;2023-03-14T04:06:02;98376.75;;;8.90;89.28
8653;BME280;4364;52.426;9.424;2023-03-14T04:08:31;98388.09;;;8.84;89.79
8653;BME280;4364;52.426;9.424;2023-03-14T04:10:59;98386.47;;;8.83;89.59
8653;BME280;4364;52.426;9.424;2023-03-14T04:14:04;98381.38;;;8.81;89.60
8653;BME280;4364;52.426;9.424;2023-03-14T04:16:32;98386.13;;;8.93;88.90
8653;BME280;4364;52.426;9.424;2023-03-14T04:19:10;98389.63;;;9.02;87.58
8653;BME280;4364;52.426;9.424;2023-03-14T04:21:37;98389.50;;;8.99;87.92
8653;BME280;4364;52.426;9.424;2023-03-14T04:24:09;98375.47;;;8.88;88.30
8653;BME280;4364;52.426;9.424;2023-03-14T04:26:35;98373.22;;;8.99;88.08
8653;BME280;4364;52.426;9.424;2023-03-14T04:29:02;98380.09;;;8.87;87.67
8653;BME280;4364;52.426;9.424;2023-03-14T04:31:30;98364.31;;;8.89;88.48
8653;BME280;4364;52.426;9.424;2023-03-14T04:33:56;98371.47;;;8.94;88.05
8653;BME280;4364;52.426;9.424;2023-03-14T04:36:30;98359.69;;;8.90;88.09
8653;BME280;4364;52.426;9.424;2023-03-14T04:39:02;98372.75;;;8.88;87.34
8653;BME280;4364;52.426;9.424;2023-03-14T04:41:31;98370.84;;;8.97;87.31
8653;BME280;4364;52.426;9.424;2023-03-14T04:43:57;98362.59;;;8.76;87.82
8653;BME280;4364;52.426;9.424;2023-03-14T04:46:25;98359.56;;;8.78;87.97
8653;BME280;4364;52.426;9.424;2023-03-14T04:48:52;98352.34;;;8.82;87.96
8653;BME280;4364;52.426;9.424;2023-03-14T04:51:18;98353.34;;;8.68;88.38
8653;BME280;4364;52.426;9.424;2023-03-14T04:53:45;98354.78;;;8.66;88.47
8653;BME280;4364;52.426;9.424;2023-03-14T04:56:13;98355.09;;;8.64;87.87
8653;BME280;4364;52.426;9.424;2023-03-14T04:58:41;98343.63;;;8.67;87.74
8653;BME280;4364;52.426;9.424;2023-03-14T05:01:08;98341.72;;;8.59;87.68
8653;BME280;4364;52.426;9.424;2023-03-14T05:03:43;98341.56;;;8.64;87.64
8653;BME280;4364;52.426;9.424;2023-03-14T05:06:10;98330.38;;;8.75;86.80
8653;BME280;4364;52.426;9.424;2023-03-14T05:08:56;98326.91;;;8.57;88.10
8653;BME280;4364;52.426;9.424;2023-03-14T05:11:43;98319.44;;;8.62;87.38
8653;BME280;4364;52.426;9.424;2023-03-14T05:14:27;98319.91;;;8.56;88.38
8653;BME280;4364;52.426;9.424;2023-03-14T05:17:13;98317.66;;;8.66;87.65
8653;BME280;4364;52.426;9.424;2023-03-14T05:19:59;98325.78;;;8.66;88.55
8653;BME280;4364;52.426;9.424;2023-03-14T05:22:34;98313.06;;;8.49;89.50
8653;BME280;4364;52.426;9.424;2023-03-14T05:25:21;98305.41;;;8.51;89.90
8653;BME280;4364;52.426;9.424;2023-03-14T05:28:10;98313.06;;;8.49;90.39
8653;BME280;4364;52.426;9.424;2023-03-14T05:30:50;98320.84;;;8.60;89.71
8653;BME280;4364;52.426;9.424;2023-03-14T05:33:35;98321.50;;;8.65;90.01
8653;BME280;4364;52.426;9.424;2023-03-14T05:36:28;98328.97;;;8.60;90.47
8653;BME280;4364;52.426;9.424;2023-03-14T05:39:15;98320.06;;;8.59;90.76
8653;BME280;4364;52.426;9.424;2023-03-14T05:42:03;98326.59;;;8.58;90.34
8653;BME280;4364;52.426;9.424;2023-03-14T05:44:48;98327.41;;;8.50;91.13
8653;BME280;4364;52.426;9.424;2023-03-14T05:47:38;98322.13;;;8.53;90.08
8653;BME280;4364;52.426;9.424;2023-03-14T05:50:25;98316.09;;;8.48;90.94
8653;BME280;4364;52.426;9.424;2023-03-14T05:53:21;98309.22;;;8.42;90.86
8653;BME280;4364;52.426;9.424;2023-03-14T05:56:06;98329.47;;;8.53;90.64
8653;BME280;4364;52.426;9.424;2023-03-14T05:58:55;98334.13;;;8.44;91.35
8653;BME280;4364;52.426;9.424;2023-03-14T06:01:29;98323.13;;;8.49;90.68
8653;BME280;4364;52.426;9.424;2023-03-14T06:04:09;98328.03;;;8.56;90.46
8653;BME280;4364;52.426;9.424;2023-03-14T06:06:36;98320.38;;;8.58;90.58
8653;BME280;4364;52.426;9.424;2023-03-14T06:09:05;98321.03;;;8.55;90.30
8653;BME280;4364;52.426;9.424;2023-03-14T06:11:34;98326.59;;;8.58;90.17
8653;BME280;4364;52.426;9.424;2023-03-14T06:14:02;98309.53;;;8.66;90.02
8653;BME280;4364;52.426;9.424;2023-03-14T06:16:29;98317.97;;;8.65;90.35
8653;BME280;4364;52.426;9.424;2023-03-14T06:18:56;98324.81;;;8.71;89.88
8653;BME280;4364;52.426;9.424;2023-03-14T06:21:23;98320.38;;;8.58;90.59
8653;BME280;4364;52.426;9.424;2023-03-14T06:23:50;98336.13;;;8.73;89.76
8653;BME280;4364;52.426;9.424;2023-03-14T06:26:17;98342.19;;;8.79;89.36
8653;BME280;4364;52.426;9.424;2023-03-14T06:28:44;98334.34;;;8.86;88.51
8653;BME280;4364;52.426;9.424;2023-03-14T06:31:11;98332.63;;;8.73;89.21
8653;BME280;4364;52.426;9.424;2023-03-14T06:33:47;98343.63;;;8.76;89.84
8653;BME280;4364;52.426;9.424;2023-03-14T06:36:14;98342.66;;;8.81;88.99
8653;BME280;4364;52.426;9.424;2023-03-14T06:38:43;98331.19;;;8.84;88.09
8653;BME280;4364;52.426;9.424;2023-03-14T06:41:09;98336.09;;;8.90;88.49
8653;BME280;4364;52.426;9.424;2023-03-14T06:43:40;98332.91;;;8.88;88.17
8653;BME280;4364;52.426;9.424;2023-03-14T06:46:07;98324.88;;;9.09;85.72
8653;BME280;4364;52.426;9.424;2023-03-14T06:48:36;98333.78;;;9.19;85.02
8653;BME280;4364;52.426;9.424;2023-03-14T06:51:03;98336.13;;;9.20;85.07
8653;BME280;4364;52.426;9.424;2023-03-14T06:53:30;98337.41;;;9.23;84.94
8653;BME280;4364;52.426;9.424;2023-03-14T06:55:59;98334.56;;;9.19;83.74
8653;BME280;4364;52.426;9.424;2023-03-14T06:58:30;98327.66;;;9.22;84.32
8653;BME280;4364;52.426;9.424;2023-03-14T07:00:57;98326.53;;;9.32;82.71
8653;BME280;4364;52.426;9.424;2023-03-14T07:03:30;98329.41;;;9.26;83.26
8653;BME280;4364;52.426;9.424;2023-03-14T07:05:58;98343.75;;;9.27;83.90
8653;BME280;4364;52.426;9.424;2023-03-14T07:08:26;98349.81;;;9.33;83.24
8653;BME280;4364;52.426;9.424;2023-03-14T07:10:56;98340.53;;;9.34;82.31
8653;BME280;4364;52.426;9.424;2023-03-14T07:13:23;98346.28;;;9.41;82.16
8653;BME280;4364;52.426;9.424;2023-03-14T07:15:58;98341.19;;;9.39;81.97
8653;BME280;4364;52.426;9.424;2023-03-14T07:18:25;98350.41;;;9.38;82.00
8653;BME280;4364;52.426;9.424;2023-03-14T07:20:51;98352.03;;;9.39;81.36
8653;BME280;4364;52.426;9.424;2023-03-14T07:23:18;98355.38;;;9.36;81.35
8653;BME280;4364;52.426;9.424;2023-03-14T07:25:47;98356.66;;;9.39;81.43
8653;BME280;4364;52.426;9.424;2023-03-14T07:28:17;98353.50;;;9.28;82.39
8653;BME280;4364;52.426;9.424;2023-03-14T07:30:46;98351.75;;;9.32;83.30
8653;BME280;4364;52.426;9.424;2023-03-14T07:33:19;98363.25;;;9.20;84.21
8653;BME280;4364;52.426;9.424;2023-03-14T07:35:49;98357.69;;;9.17;85.36
8653;BME280;4364;52.426;9.424;2023-03-14T07:38:16;98356.75;;;9.13;85.97
8653;BME280;4364;52.426;9.424;2023-03-14T07:41:05;98349.44;;;9.04;86.33
8653;BME280;4364;52.426;9.424;2023-03-14T07:43:35;98354.69;;;9.09;87.08
8653;BME280;4364;52.426;9.424;2023-03-14T07:46:01;98368.13;;;8.88;87.89
8653;BME280;4364;52.426;9.424;2023-03-14T07:48:28;98356.50;;;8.88;88.23
8653;BME280;4364;52.426;9.424;2023-03-14T07:50:55;98364.34;;;8.81;89.32
8653;BME280;4364;52.426;9.424;2023-03-14T07:53:22;98359.03;;;8.93;88.64
8653;BME280;4364;52.426;9.424;2023-03-14T07:55:50;98357.41;;;9.09;88.83
8653;BME280;4364;52.426;9.424;2023-03-14T07:58:17;98347.16;;;9.15;87.58
8653;BME280;4364;52.426;9.424;2023-03-14T08:00:44;98363.28;;;9.12;86.85
8653;BME280;4364;52.426;9.424;2023-03-14T08:03:10;98373.16;;;9.16;86.77
8653;BME280;4364;52.426;9.424;2023-03-14T08:05:37;98367.19;;;9.32;85.15
8653;BME280;4364;52.426;9.424;2023-03-14T08:08:04;98365.94;;;9.29;85.27
8653;BME280;4364;52.426;9.424;2023-03-14T08:10:31;98368.66;;;9.29;86.43
8653;BME280;4364;52.426;9.424;2023-03-14T08:12:59;98368.34;;;9.22;87.28
8653;BME280;4364;52.426;9.424;2023-03-14T08:15:28;98375.88;;;9.16;88.88
8653;BME280;4364;52.426;9.424;2023-03-14T08:17:55;98376.91;;;8.94;91.44
8653;BME280;4364;52.426;9.424;2023-03-14T08:20:24;98380.69;;;9.02;93.12
8653;BME280;4364;52.426;9.424;2023-03-14T08:22:51;98375.94;;;8.99;94.25
8653;BME280;4364;52.426;9.424;2023-03-14T08:25:18;98371.63;;;8.98;93.75
8653;BME280;4364;52.426;9.424;2023-03-14T08:27:45;98371.00;;;8.92;93.62
8653;BME280;4364;52.426;9.424;2023-03-14T08:30:14;98372.75;;;8.88;95.31
8653;BME280;4364;52.426;9.424;2023-03-14T08:32:40;98384.25;;;8.85;95.89
8653;BME280;4364;52.426;9.424;2023-03-14T08:35:08;98370.53;;;8.81;96.13
8653;BME280;4364;52.426;9.424;2023-03-14T08:37:35;98367.84;;;8.81;97.34
8653;BME280;4364;52.426;9.424;2023-03-14T08:40:04;98373.75;;;8.75;97.39
8653;BME280;4364;52.426;9.424;2023-03-14T08:42:33;98367.53;;;8.74;97.53
8653;BME280;4364;52.426;9.424;2023-03-14T08:45:06;98367.00;;;8.89;96.85
8653;BME280;4364;52.426;9.424;2023-03-14T08:47:33;98375.94;;;8.90;96.64
8653;BME280;4364;52.426;9.424;2023-03-14T08:49:59;98378.47;;;8.95;97.77
8653;BME280;4364;52.426;9.424;2023-03-14T08:52:26;98377.00;;;9.06;96.83
8653;BME280;4364;52.426;9.424;2023-03-14T08:54:53;98378.28;;;9.09;97.29
8653;BME280;4364;52.426;9.424;2023-03-14T08:57:19;98378.28;;;9.09;97.81
8653;BME280;4364;52.426;9.424;2023-03-14T08:59:48;98377.44;;;9.26;97.78
8653;BME280;4364;52.426;9.424;2023-03-14T09:02:14;98387.94;;;9.36;97.54
8653;BME280;4364;52.426;9.424;2023-03-14T09:04:40;98386.38;;;9.26;97.62
8653;BME280;4364;52.426;9.424;2023-03-14T09:07:07;98390.13;;;9.43;96.82
8653;BME280;4364;52.426;9.424;2023-03-14T09:09:33;98384.53;;;9.48;96.87
8653;BME280;4364;52.426;9.424;2023-03-14T09:12:00;98388.56;;;9.33;98.63
8653;BME280;4364;52.426;9.424;2023-03-14T09:14:27;98379.78;;;9.36;99.39
8653;BME280;4364;52.426;9.424;2023-03-14T09:16:55;98382.38;;;9.33;100.00
8653;BME280;4364;52.426;9.424;2023-03-14T09:19:21;98386.78;;;9.46;100.00
8653;BME280;4364;52.426;9.424;2023-03-14T09:21:48;98384.22;;;9.50;100.00
8653;BME280;4364;52.426;9.424;2023-03-14T09:24:16;98382.59;;;9.57;99.13
8653;BME280;4364;52.426;9.424;2023-03-14T09:26:42;98382.03;;;9.73;98.68
8653;BME280;4364;52.426;9.424;2023-03-14T09:29:09;98382.56;;;9.87;97.54
8653;BME280;4364;52.426;9.424;2023-03-14T09:31:35;98389.78;;;9.83;95.78
8653;BME280;4364;52.426;9.424;2023-03-14T09:34:02;98383.78;;;9.98;95.07
8653;BME280;4364;52.426;9.424;2023-03-14T09:36:29;98399.28;;;9.98;93.45
8653;BME280;4364;52.426;9.424;2023-03-14T09:38:55;98390.63;;;10.05;93.21
8653;BME280;4364;52.426;9.424;2023-03-14T09:41:27;98395.41;;;10.08;92.49
8653;BME280;4364;52.426;9.424;2023-03-14T09:44:03;98382.50;;;10.26;92.79
8653;BME280;4364;52.426;9.424;2023-03-14T09:46:33;98388.81;;;10.38;92.02
8653;BME280;4364;52.426;9.424;2023-03-14T09:49:02;98385.94;;;10.35;91.42
8653;BME280;4364;52.426;9.424;2023-03-14T09:51:29;98380.97;;;10.37;91.03
8653;BME280;4364;52.426;9.424;2023-03-14T09:53:57;98382.16;;;10.48;90.52
8653;BME280;4364;52.426;9.424;2023-03-14T09:56:30;98387.28;;;10.50;90.65
8653;BME280;4364;52.426;9.424;2023-03-14T09:58:59;98374.22;;;10.43;92.02
8653;BME280;4364;52.426;9.424;2023-03-14T10:01:31;98378.06;;;10.42;89.10
8653;BME280;4364;52.426;9.424;2023-03-14T10:04:06;98375.13;;;10.47;90.26
8653;BME280;4364;52.426;9.424;2023-03-14T10:06:36;98370.56;;;10.60;89.73
8653;BME280;4364;52.426;9.424;2023-03-14T10:09:03;98373.94;;;10.57;89.19
8653;BME280;4364;52.426;9.424;2023-03-14T10:11:32;98375.81;;;10.44;89.71
8653;BME280;4364;52.426;9.424;2023-03-14T10:14:07;98384.03;;;10.35;91.64
8653;BME280;4364;52.426;9.424;2023-03-14T10:16:45;98379.88;;;10.38;91.63
8653;BME280;4364;52.426;9.424;2023-03-14T10:19:14;98385.53;;;10.24;93.04
8653;BME280;4364;52.426;9.424;2023-03-14T10:21:50;98381.69;;;10.25;92.69
8653;BME280;4364;52.426;9.424;2023-03-14T10:26:59;98392.47;;;10.13;94.45
8653;BME280;4364;52.426;9.424;2023-03-14T10:29:30;98391.81;;;10.16;94.41
8653;BME280;4364;52.426;9.424;2023-03-14T10:34:30;98385.44;;;10.12;94.81
8653;BME280;4364;52.426;9.424;2023-03-14T10:37:06;98389.31;;;10.11;94.99
8653;BME280;4364;52.426;9.424;2023-03-14T10:39:38;98384.13;;;10.18;94.89
8653;BME280;4364;52.426;9.424;2023-03-14T10:44:41;98373.84;;;10.24;93.69
8653;BME280;4364;52.426;9.424;2023-03-14T10:47:17;98385.53;;;10.24;94.09
8653;BME280;4364;52.426;9.424;2023-03-14T10:49:44;98374.16;;;10.31;95.82
8653;BME280;4364;52.426;9.424;2023-03-14T10:52:22;98384.84;;;10.27;94.47
8653;BME280;4364;52.426;9.424;2023-03-14T10:55:04;98435.28;;;10.16;95.38
8653;BME280;4364;52.426;9.424;2023-03-14T10:57:39;98451.44;;;9.82;96.79
8653;BME280;4364;52.426;9.424;2023-03-14T11:00:09;98472.53;;;9.21;96.18
8653;BME280;4364;52.426;9.424;2023-03-14T11:03:03;98520.31;;;7.98;95.19
8653;BME280;4364;52.426;9.424;2023-03-14T11:05:49;98533.25;;;7.16;97.67
8653;BME280;4364;52.426;9.424;2023-03-14T11:11:27;98548.72;;;6.51;97.54
8653;BME280;4364;52.426;9.424;2023-03-14T11:14:25;98556.75;;;6.01;97.98
8653;BME280;4364;52.426;9.424;2023-03-14T11:17:02;98570.84;;;6.11;99.64
8653;BME280;4364;52.426;9.424;2023-03-14T11:23:36;98589.56;;;5.75;100.00
8653;BME280;4364;52.426;9.424;2023-03-14T11:25:32;98607.03;;;5.78;100.00
8653;BME280;4364;52.426;9.424;2023-03-14T11:28:18;98614.41;;;5.72;100.00
8653;BME280;4364;52.426;9.424;2023-03-14T11:30:54;98643.50;;;5.56;99.80
8653;BME280;4364;52.426;9.424;2023-03-14T11:33:31;98644.91;;;5.34;100.00
8653;BME280;4364;52.426;9.424;2023-03-14T11:36:08;98682.28;;;5.22;99.98
8653;BME280;4364;52.426;9.424;2023-03-14T11:38:50;98687.53;;;5.13;100.00
8653;BME280;4364;52.426;9.424;2023-03-14T11:41:22;98702.06;;;4.93;99.80
8653;BME280;4364;52.426;9.424;2023-03-14T11:43:55;98715.88;;;4.87;99.00
8653;BME280;4364;52.426;9.424;2023-03-14T11:51:27;98752.34;;;4.50;98.57
8653;BME280;4364;52.426;9.424;2023-03-14T11:54:18;98760.72;;;4.48;98.92
8653;BME280;4364;52.426;9.424;2023-03-14T11:57:16;98803.53;;;4.10;98.29
8653;BME280;4364;52.426;9.424;2023-03-14T11:59:51;98822.75;;;3.93;97.99
8653;BME280;4364;52.426;9.424;2023-03-14T12:02:26;98823.34;;;3.85;97.88
8653;BME280;4364;52.426;9.424;2023-03-14T12:10:39;98871.16;;;3.93;98.21
8653;BME280;4364;52.426;9.424;2023-03-14T12:13:09;98885.72;;;3.82;97.78
8653;BME280;4364;52.426;9.424;2023-03-14T12:15:46;98882.88;;;3.58;96.81
8653;BME280;4364;52.426;9.424;2023-03-14T12:18:38;98908.38;;;3.65;97.00
8653;BME280;4364;52.426;9.424;2023-03-14T12:21:11;98918.06;;;3.61;96.55
8653;BME280;4364;52.426;9.424;2023-03-14T12:23:54;98925.31;;;3.66;97.78
8653;BME280;4364;52.426;9.424;2023-03-14T12:26:24;98944.91;;;3.71;96.63
8653;BME280;4364;52.426;9.424;2023-03-14T12:34:03;98952.09;;;3.97;95.50
8653;BME280;4364;52.426;9.424;2023-03-14T12:41:52;98957.69;;;4.05;93.69
8653;BME280;4364;52.426;9.424;2023-03-14T12:46:58;98968.38;;;4.26;93.72
8653;BME280;4364;52.426;9.424;2023-03-14T12:49:31;98978.84;;;4.22;92.17
8653;BME280;4364;52.426;9.424;2023-03-14T12:51:59;98995.28;;;4.26;91.52
8653;BME280;4364;52.426;9.424;2023-03-14T12:54:50;99012.53;;;4.15;91.63
8653;BME280;4364;52.426;9.424;2023-03-14T12:57:42;99029.69;;;4.29;91.17
8653;BME280;4364;52.426;9.424;2023-03-14T13:02:44;99042.47;;;4.58;91.14
8653;BME280;4364;52.426;9.424;2023-03-14T13:05:20;99047.28;;;4.61;91.08
8653;BME280;4364;52.426;9.424;2023-03-14T13:10:22;99056.66;;;4.74;90.16
8653;BME280;4364;52.426;9.424;2023-03-14T13:12:52;99065.53;;;4.79;89.49
8653;BME280;4364;52.426;9.424;2023-03-14T13:15:41;99085.94;;;4.86;90.36
8653;BME280;4364;52.426;9.424;2023-03-14T13:18:14;99086.00;;;4.75;89.81
8653;BME280;4364;52.426;9.424;2023-03-14T13:20:45;99100.06;;;4.62;89.96
8653;BME280;4364;52.426;9.424;2023-03-14T13:23:21;99115.91;;;4.69;92.59
8653;BME280;4364;52.426;9.424;2023-03-14T13:25:48;99111.91;;;4.66;91.36
8653;BME280;4364;52.426;9.424;2023-03-14T13:28:16;99118.09;;;4.67;90.82
8653;BME280;4364;52.426;9.424;2023-03-14T13:30:45;99131.72;;;4.86;91.44
8653;BME280;4364;52.426;9.424;2023-03-14T13:33:16;99126.56;;;4.89;91.28
8653;BME280;4364;52.426;9.424;2023-03-14T13:35:46;99135.50;;;4.85;88.35
8653;BME280;4364;52.426;9.424;2023-03-14T13:38:17;99143.00;;;4.88;90.05
8653;BME280;4364;52.426;9.424;2023-03-14T13:40:45;99152.41;;;4.95;88.58
8653;BME280;4364;52.426;9.424;2023-03-14T13:43:31;99151.66;;;4.85;88.87
8653;BME280;4364;52.426;9.424;2023-03-14T13:46:13;99164.28;;;4.89;88.54
8653;BME280;4364;52.426;9.424;2023-03-14T13:49:06;99159.16;;;4.98;89.05
8653;BME280;4364;52.426;9.424;2023-03-14T13:51:31;99176.38;;;4.97;89.55
8653;BME280;4364;52.426;9.424;2023-03-14T13:54:01;99181.78;;;4.97;89.09
8653;BME280;4364;52.426;9.424;2023-03-14T13:56:31;99190.06;;;5.06;88.23
8653;BME280;4364;52.426;9.424;2023-03-14T13:58:59;99198.13;;;5.11;88.00
8653;BME280;4364;52.426;9.424;2023-03-14T14:01:29;99214.03;;;5.12;86.41
8653;BME280;4364;52.426;9.424;2023-03-14T14:04:05;99213.81;;;4.98;84.39
8653;BME280;4364;52.426;9.424;2023-03-14T14:06:38;99230.56;;;4.90;81.47
8653;BME280;4364;52.426;9.424;2023-03-14T14:09:16;99229.22;;;4.88;79.83
8653;BME280;4364;52.426;9.424;2023-03-14T14:11:50;99231.91;;;4.93;80.07
8653;BME280;4364;52.426;9.424;2023-03-14T14:14:43;99250.75;;;4.88;80.45
8653;BME280;4364;52.426;9.424;2023-03-14T14:17:13;99252.38;;;4.89;80.40
8653;BME280;4364;52.426;9.424;2023-03-14T14:19:41;99267.50;;;4.85;78.52
8653;BME280;4364;52.426;9.424;2023-03-14T14:22:09;99284.69;;;4.89;76.18
8653;BME280;4364;52.426;9.424;2023-03-14T14:24:37;99297.91;;;4.90;75.00
8653;BME280;4364;52.426;9.424;2023-03-14T14:27:14;99325.91;;;4.89;74.21
8653;BME280;4364;52.426;9.424;2023-03-14T14:29:42;99302.75;;;4.93;73.72
8653;BME280;4364;52.426;9.424;2023-03-14T14:32:13;99304.56;;;5.13;74.17
8653;BME280;4364;52.426;9.424;2023-03-14T14:34:41;99315.91;;;5.05;72.31
8653;BME280;4364;52.426;9.424;2023-03-14T14:37:22;99325.06;;;5.04;69.41
8653;BME280;4364;52.426;9.424;2023-03-14T14:39:55;99343.09;;;5.14;68.94